Time;durP1;ratioP1;P1;durP2;ratioP2;P2;SDS_P1;SDS_P2;PMS_P1;PMS_P2;Temp;Humidity;BMP_temperature;BMP_pressure;BME280_temperature;BME280_humidity;BME280_pressure;Samples;Min_cycle;Max_cycle;Signal;HPM_P1;HPM_P2
2022/01/05 00:01:10;;;;;;;8.25;7.82;;;9.40;99.90;;;;;;4156398;28;20518;-53
2022/01/05 00:03:12;;;;;;;;;;;9.40;99.90;;;;;;4159942;28;20046;-53
2022/01/05 00:05:15;;;;;;;6.70;6.40;;;9.40;99.90;;;;;;4161909;28;19999;-54
2022/01/05 00:07:17;;;;;;;6.32;6.22;;;9.40;99.90;;;;;;4157403;28;20043;-52
2022/01/05 00:09:19;;;;;;;5.55;5.20;;;9.40;99.90;;;;;;4161986;28;20046;-54
2022/01/05 00:11:22;;;;;;;6.70;6.32;;;9.30;99.90;;;;;;4159098;28;20053;-53
2022/01/05 00:13:25;;;;;;;7.28;7.05;;;9.30;99.90;;;;;;4160034;28;20037;-54
2022/01/05 00:15:27;;;;;;;8.43;7.75;;;9.30;99.90;;;;;;4159184;28;20037;-53
2022/01/05 00:17:30;;;;;;;7.22;6.75;;;9.30;99.90;;;;;;4161003;28;20099;-54
2022/01/05 00:19:34;;;;;;;6.40;6.15;;;9.30;99.90;;;;;;4159032;28;20046;-53
2022/01/05 00:21:38;;;;;;;6.18;5.97;;;9.30;99.90;;;;;;4159597;28;20046;-54
2022/01/05 00:23:40;;;;;;;5.47;5.28;;;9.30;99.90;;;;;;4158406;28;20037;-53
2022/01/05 00:25:42;;;;;;;4.97;4.78;;;9.30;99.90;;;;;;4165743;28;20045;-52
2022/01/05 00:27:44;;;;;;;5.80;5.50;;;9.30;99.90;;;;;;4157074;28;20071;-53
2022/01/05 00:29:46;;;;;;;5.55;5.13;;;9.30;99.90;;;;;;4160406;28;20085;-53
2022/01/05 00:31:49;;;;;;;;;;;9.30;99.90;;;;;;4158877;28;20069;-54
2022/01/05 00:33:51;;;;;;;5.77;5.53;;;9.30;99.90;;;;;;4164021;28;19928;-53
2022/01/05 00:35:53;;;;;;;6.53;6.20;;;9.40;99.90;;;;;;4162972;28;20296;-53
2022/01/05 00:37:55;;;;;;;6.80;6.43;;;9.40;99.90;;;;;;4149805;28;20041;-53
2022/01/05 00:39:57;;;;;;;5.85;5.45;;;9.30;99.90;;;;;;4161435;28;20041;-54
2022/01/05 00:42:00;;;;;;;7.10;6.70;;;9.40;99.90;;;;;;4163579;28;20128;-53
2022/01/05 00:44:02;;;;;;;6.40;6.05;;;9.40;99.90;;;;;;4161075;28;20570;-54
2022/01/05 00:46:04;;;;;;;7.95;7.63;;;9.40;99.90;;;;;;4163598;28;20127;-53
2022/01/05 00:48:06;;;;;;;7.18;6.80;;;9.40;99.90;;;;;;4160252;28;20124;-54
2022/01/05 00:50:09;;;;;;;7.45;7.07;;;9.40;99.90;;;;;;4163446;28;20485;-54
2022/01/05 00:52:12;;;;;;;7.85;7.25;;;9.40;99.90;;;;;;4160384;28;20509;-54
2022/01/05 00:54:14;;;;;;;6.97;6.75;;;9.40;99.90;;;;;;4163877;28;20121;-54
2022/01/05 00:56:16;;;;;;;7.45;6.25;;;9.40;99.90;;;;;;4162734;28;20046;-54
2022/01/05 00:58:18;;;;;;;6.68;6.25;;;9.30;99.90;;;;;;4162346;28;20099;-54
2022/01/05 01:00:21;;;;;;;7.28;6.50;;;9.30;99.90;;;;;;4159915;28;20033;-53
2022/01/05 01:02:23;;;;;;;6.10;5.90;;;9.30;99.90;;;;;;4163935;28;20048;-54
2022/01/05 01:04:25;;;;;;;7.75;7.10;;;9.30;99.90;;;;;;4160286;28;20041;-54
2022/01/05 01:06:27;;;;;;;6.97;6.55;;;9.30;99.90;;;;;;4163495;28;20041;-54
2022/01/05 01:08:31;;;;;;;8.07;7.03;;;9.30;99.90;;;;;;4161195;28;20049;-54
2022/01/05 01:10:33;;;;;;;5.90;5.68;;;9.30;99.90;;;;;;4147200;28;20053;-54
2022/01/05 01:12:35;;;;;;;7.65;6.75;;;9.30;99.90;;;;;;4161420;28;20061;-54
2022/01/05 01:14:37;;;;;;;8.35;6.75;;;9.30;99.90;;;;;;4163260;28;20030;-54
2022/01/05 01:16:39;;;;;;;6.32;5.95;;;9.30;99.90;;;;;;4160643;28;20072;-54
2022/01/05 01:18:41;;;;;;;7.57;5.88;;;9.30;99.90;;;;;;4157566;28;20240;-54
2022/01/05 01:20:44;;;;;;;7.13;6.68;;;9.30;99.90;;;;;;4160987;28;20037;-54
2022/01/05 01:22:48;;;;;;;7.70;5.22;;;9.30;99.90;;;;;;4164381;28;20417;-54
2022/01/05 01:24:50;;;;;;;6.38;5.80;;;9.20;99.90;;;;;;4160908;28;20037;-54
2022/01/05 01:26:52;;;;;;;5.43;5.13;;;9.20;99.90;;;;;;4162662;28;20042;-54
2022/01/05 01:28:56;;;;;;;7.32;5.38;;;9.30;99.90;;;;;;4161906;28;20044;-54
2022/01/05 01:30:58;;;;;;;6.68;6.25;;;9.30;99.90;;;;;;4156441;28;20081;-54
2022/01/05 01:33:00;;;;;;;4.82;4.43;;;9.30;99.90;;;;;;4161446;28;20033;-54
2022/01/05 01:35:06;;;;;;;5.45;4.32;;;9.20;99.90;;;;;;4161880;28;20041;-54
2022/01/05 01:37:08;;;;;;;7.00;5.47;;;9.30;99.90;;;;;;4162680;28;20461;-54
2022/01/05 01:39:10;;;;;;;4.80;4.68;;;9.30;99.90;;;;;;4161760;28;20037;-55
2022/01/05 01:41:12;;;;;;;4.38;4.10;;;9.30;99.90;;;;;;4162935;28;20045;-54
2022/01/05 01:43:15;;;;;;;5.00;4.75;;;9.30;99.90;;;;;;4161079;28;20466;-54
2022/01/05 01:45:17;;;;;;;4.97;4.68;;;9.30;99.90;;;;;;4156851;28;20169;-54
2022/01/05 01:47:20;;;;;;;7.75;5.00;;;9.30;99.90;;;;;;4154841;28;20428;-54
2022/01/05 01:49:22;;;;;;;5.47;4.97;;;9.30;99.90;;;;;;4163114;28;20080;-54
2022/01/05 01:51:24;;;;;;;5.30;4.90;;;9.30;99.90;;;;;;4159655;28;20109;-54
2022/01/05 01:53:26;;;;;;;6.35;5.82;;;9.30;99.90;;;;;;4162030;28;20049;-55
2022/01/05 01:55:28;;;;;;;8.90;4.75;;;9.30;99.90;;;;;;4161279;28;20064;-54
2022/01/05 01:57:34;;;;;;;5.15;4.93;;;9.30;99.90;;;;;;4161190;28;20117;-54
2022/01/05 01:59:36;;;;;;;10.07;5.43;;;9.30;99.90;;;;;;4160130;28;20042;-53
2022/01/05 02:01:40;;;;;;;4.82;4.60;;;9.30;99.90;;;;;;4161812;28;20516;-54
2022/01/05 02:03:43;;;;;;;7.03;4.35;;;9.30;99.90;;;;;;4152544;28;20085;-54
2022/01/05 02:05:45;;;;;;;5.60;5.07;;;9.30;99.90;;;;;;4162978;28;20037;-55
2022/01/05 02:07:47;;;;;;;5.68;5.30;;;9.30;99.90;;;;;;4159513;28;20053;-54
2022/01/05 02:09:49;;;;;;;5.65;5.15;;;9.40;99.90;;;;;;4162054;28;20064;-54
2022/01/05 02:11:51;;;;;;;4.95;3.60;;;9.30;99.90;;;;;;4158616;28;20147;-53
2022/01/05 02:13:53;;;;;;;6.60;5.22;;;9.30;99.90;;;;;;4162024;28;20045;-53
2022/01/05 02:15:55;;;;;;;11.00;5.95;;;9.40;99.90;;;;;;4159808;28;20046;-53
2022/01/05 02:18:20;;;;;;;7.05;5.00;;;9.40;99.90;;;;;;4161697;28;20060;-54
2022/01/05 02:20:25;;;;;;;9.15;4.18;;;9.40;99.90;;;;;;4161473;28;20037;-54
2022/01/05 02:22:27;;;;;;;4.40;4.13;;;9.50;99.90;;;;;;4160469;28;20038;-54
2022/01/05 02:24:29;;;;;;;7.93;4.22;;;9.50;99.90;;;;;;4157326;28;20042;-52
2022/01/05 02:26:32;;;;;;;4.13;3.60;;;9.40;99.90;;;;;;4163164;28;20073;-54
2022/01/05 02:28:34;;;;;;;4.45;4.07;;;9.40;99.90;;;;;;4160542;28;20045;-53
2022/01/05 02:30:39;;;;;;;5.32;4.15;;;9.50;99.90;;;;;;4151176;28;20053;-54
2022/01/05 02:32:41;;;;;;;6.40;4.07;;;9.50;99.90;;;;;;4154446;28;20037;-53
2022/01/05 02:34:44;;;;;;;4.50;4.10;;;9.50;99.90;;;;;;4155182;28;20076;-54
2022/01/05 02:36:46;;;;;;;5.75;3.95;;;9.50;99.90;;;;;;4160090;28;20037;-53
2022/01/05 02:38:51;;;;;;;4.75;3.85;;;9.50;99.90;;;;;;4162151;28;20412;-53
2022/01/05 02:40:53;;;;;;;7.72;4.15;;;9.70;99.90;;;;;;4159714;28;20064;-54
2022/01/05 02:42:57;;;;;;;5.38;3.72;;;9.70;99.90;;;;;;4161096;28;20536;-54
2022/01/05 02:44:59;;;;;;;8.25;4.43;;;9.70;99.90;;;;;;4158501;28;20052;-54
2022/01/05 02:47:01;;;;;;;6.43;4.15;;;9.70;99.90;;;;;;4171701;28;20040;-54
2022/01/05 02:49:04;;;;;;;4.38;3.72;;;9.60;99.90;;;;;;4159500;28;20167;-53
2022/01/05 02:51:07;;;;;;;12.25;4.38;;;9.60;99.90;;;;;;4162163;28;20053;-53
2022/01/05 02:53:09;;;;;;;6.32;3.42;;;9.60;99.90;;;;;;4159611;28;20064;-54
2022/01/05 02:55:12;;;;;;;5.88;3.70;;;9.60;99.90;;;;;;4162237;28;20557;-52
2022/01/05 02:57:14;;;;;;;;;;;9.60;99.90;;;;;;4157338;28;20053;-54
2022/01/05 02:59:16;;;;;;;7.35;3.60;;;9.60;99.90;;;;;;4161790;28;19923;-53
2022/01/05 03:01:18;;;;;;;6.40;3.25;;;9.50;99.90;;;;;;4160857;28;20069;-54
2022/01/05 03:03:20;;;;;;;;;;;9.50;99.90;;;;;;4159091;28;20059;-52
2022/01/05 03:05:23;;;;;;;2.85;2.53;;;9.50;99.90;;;;;;4161561;28;20412;-53
2022/01/05 03:07:26;;;;;;;5.97;3.88;;;9.50;99.90;;;;;;4159421;28;20034;-53
2022/01/05 03:09:28;;;;;;;4.43;3.00;;;9.50;99.90;;;;;;4159822;28;20073;-53
2022/01/05 03:11:29;;;;;;;5.45;3.67;;;9.50;99.90;;;;;;4161946;28;20067;-53
2022/01/05 03:13:31;;;;;;;4.82;4.35;;;9.50;99.90;;;;;;4159496;28;20454;-53
2022/01/05 03:15:37;;;;;;;7.35;4.10;;;9.50;99.90;;;;;;4161652;28;20037;-52
2022/01/05 03:17:39;;;;;;;8.05;3.70;;;9.50;99.90;;;;;;4157677;28;20080;-53
2022/01/05 03:19:41;;;;;;;3.40;3.10;;;9.50;99.90;;;;;;4161503;28;20085;-53
2022/01/05 03:21:43;;;;;;;4.68;3.22;;;9.50;99.90;;;;;;4158642;28;20120;-53
2022/01/05 03:23:47;;;;;;;3.35;3.20;;;9.50;99.90;;;;;;4161370;28;20041;-52
2022/01/05 03:25:49;;;;;;;8.00;3.22;;;9.50;99.90;;;;;;4160176;28;20143;-52
2022/01/05 03:27:52;;;;;;;5.40;4.57;;;9.50;99.90;;;;;;4160967;28;20806;-51
2022/01/05 03:29:54;;;;;;;4.07;3.67;;;9.60;99.90;;;;;;4159872;28;20046;-53
2022/01/05 03:31:56;;;;;;;4.85;4.03;;;9.60;99.90;;;;;;4159442;28;20505;-52
2022/01/05 03:33:59;;;;;;;8.02;4.60;;;9.60;99.90;;;;;;4160421;28;20545;-53
2022/01/05 03:36:02;;;;;;;11.32;4.35;;;9.50;99.90;;;;;;4160153;28;20052;-53
2022/01/05 03:38:05;;;;;;;5.70;3.08;;;9.60;99.90;;;;;;4157826;28;20832;-53
2022/01/05 03:40:08;;;;;;;5.63;4.20;;;9.50;99.90;;;;;;4161135;28;20052;-54
2022/01/05 03:42:10;;;;;;;3.67;3.58;;;9.60;99.90;;;;;;4160366;28;20537;-53
2022/01/05 03:44:12;;;;;;;2.95;2.70;;;9.50;99.90;;;;;;4159236;28;20037;-53
2022/01/05 03:46:14;;;;;;;7.70;2.75;;;9.60;99.90;;;;;;4161702;28;20049;-53
2022/01/05 03:48:18;;;;;;;;;;;9.60;99.90;;;;;;4159239;28;20052;-52
2022/01/05 03:50:20;;;;;;;5.60;3.55;;;9.60;99.90;;;;;;4161800;28;19921;-53
2022/01/05 03:52:22;;;;;;;5.07;3.47;;;9.60;99.90;;;;;;4159269;28;20117;-53
2022/01/05 03:54:24;;;;;;;4.13;3.15;;;9.50;99.90;;;;;;4161207;28;20065;-53
2022/01/05 03:56:26;;;;;;;6.60;4.20;;;9.50;99.90;;;;;;4158811;28;20026;-53
2022/01/05 03:58:28;;;;;;;3.50;3.30;;;9.60;99.90;;;;;;4160632;28;20117;-53
2022/01/05 04:00:32;;;;;;;4.07;3.63;;;9.60;99.90;;;;;;4149317;28;20030;-53
2022/01/05 04:02:34;;;;;;;3.60;3.30;;;9.50;99.90;;;;;;4158655;28;20045;-53
2022/01/05 04:04:36;;;;;;;10.43;3.50;;;9.50;99.90;;;;;;4156454;28;20047;-53
2022/01/05 04:06:38;;;;;;;3.53;3.03;;;9.60;99.90;;;;;;4160908;28;20087;-52
2022/01/05 04:08:40;;;;;;;4.35;4.05;;;9.50;99.90;;;;;;4161301;28;20037;-53
2022/01/05 04:10:42;;;;;;;8.70;4.05;;;9.50;99.90;;;;;;4163648;28;20055;-53
2022/01/05 04:12:44;;;;;;;3.85;3.15;;;9.50;99.90;;;;;;4162845;28;20037;-53
2022/01/05 04:14:46;;;;;;;7.78;3.28;;;9.50;99.90;;;;;;4157402;28;20038;-53
2022/01/05 04:16:48;;;;;;;5.95;3.38;;;9.50;99.90;;;;;;4155506;28;20065;-53
2022/01/05 04:18:51;;;;;;;6.55;3.83;;;9.50;99.90;;;;;;4164106;28;20115;-53
2022/01/05 04:20:53;;;;;;;7.68;4.32;;;9.50;99.90;;;;;;4162086;28;23545;-53
2022/01/05 04:22:55;;;;;;;8.02;3.97;;;9.50;99.90;;;;;;4165093;28;20088;-52
2022/01/05 04:24:56;;;;;;;8.05;3.58;;;9.50;99.90;;;;;;4162413;28;20072;-53
2022/01/05 04:26:59;;;;;;;4.85;3.15;;;9.50;99.90;;;;;;4164743;28;20072;-54
2022/01/05 04:29:01;;;;;;;6.32;3.50;;;9.50;99.90;;;;;;4161912;28;20440;-54
2022/01/05 04:31:03;;;;;;;3.72;3.35;;;9.50;99.90;;;;;;4162735;28;20132;-53
2022/01/05 04:33:05;;;;;;;4.10;3.75;;;9.50;99.90;;;;;;4162064;28;20594;-54
2022/01/05 04:35:27;;;;;;;4.93;4.55;;;9.50;99.90;;;;;;4162757;28;20116;-53
2022/01/05 04:37:31;;;;;;;3.78;3.13;;;9.50;99.90;;;;;;4162216;28;20108;-52
2022/01/05 04:39:35;;;;;;;6.57;3.50;;;9.50;99.90;;;;;;4164184;28;20703;-53
2022/01/05 04:41:37;;;;;;;7.35;2.90;;;9.60;99.90;;;;;;4162492;28;20045;-51
2022/01/05 04:43:39;;;;;;;3.83;3.42;;;9.60;99.90;;;;;;4162545;28;20041;-52
2022/01/05 04:45:41;;;;;;;4.13;3.85;;;9.60;99.90;;;;;;4161317;28;20407;-53
2022/01/05 04:47:43;;;;;;;6.85;3.72;;;9.60;99.90;;;;;;4163241;28;20102;-53
2022/01/05 04:49:46;;;;;;;6.18;3.95;;;9.60;99.90;;;;;;4160440;28;20465;-54
2022/01/05 04:51:49;;;;;;;7.07;3.70;;;9.50;99.90;;;;;;4163532;28;20037;-53
2022/01/05 04:53:51;;;;;;;5.20;4.85;;;9.50;99.90;;;;;;4161430;28;20576;-54
2022/01/05 04:55:53;;;;;;;3.92;3.58;;;9.60;99.90;;;;;;4163071;28;20047;-52
2022/01/05 04:58:01;;;;;;;4.30;3.88;;;9.60;99.90;;;;;;4159483;28;20068;-53
2022/01/05 05:00:04;;;;;;;7.65;4.15;;;9.70;99.90;;;;;;4164711;28;20073;-54
2022/01/05 05:02:06;;;;;;;4.72;4.20;;;9.70;99.90;;;;;;4160738;28;20129;-53
2022/01/05 05:04:08;;;;;;;6.82;4.82;;;9.70;99.90;;;;;;4163563;28;20040;-53
2022/01/05 05:06:10;;;;;;;5.55;4.00;;;9.60;99.90;;;;;;4161342;28;20044;-53
2022/01/05 05:08:12;;;;;;;6.78;4.22;;;9.60;99.90;;;;;;4163682;28;20136;-53
2022/01/05 05:10:14;;;;;;;6.22;3.92;;;9.70;99.90;;;;;;4161120;28;20029;-52
2022/01/05 05:12:16;;;;;;;7.03;4.68;;;9.70;99.90;;;;;;4163538;28;20045;-53
2022/01/05 05:14:18;;;;;;;4.35;3.95;;;9.60;99.90;;;;;;4159697;28;20068;-53
2022/01/05 05:16:20;;;;;;;4.35;3.97;;;9.60;99.90;;;;;;4162682;28;20037;-53
2022/01/05 05:18:22;;;;;;;6.88;3.30;;;9.70;99.90;;;;;;4159456;28;20099;-53
2022/01/05 05:20:24;;;;;;;8.82;6.53;;;9.70;99.90;;;;;;4163094;28;20366;-51
2022/01/05 05:22:26;;;;;;;8.48;4.40;;;9.70;99.90;;;;;;4161351;28;20494;-53
2022/01/05 05:24:28;;;;;;;7.28;4.20;;;9.70;99.90;;;;;;4163644;28;20997;-53
2022/01/05 05:26:30;;;;;;;8.07;4.40;;;9.70;99.90;;;;;;4160697;28;20088;-53
2022/01/05 05:28:32;;;;;;;4.03;3.72;;;9.70;99.90;;;;;;4163322;28;20064;-53
2022/01/05 05:30:35;;;;;;;8.68;4.55;;;9.70;99.90;;;;;;4160687;28;20116;-54
2022/01/05 05:32:37;;;;;;;6.05;4.82;;;9.70;99.90;;;;;;4163208;28;20109;-53
2022/01/05 05:34:39;;;;;;;9.02;3.90;;;9.70;99.90;;;;;;4160112;28;20022;-54
2022/01/05 05:36:41;;;;;;;4.22;3.38;;;9.80;99.90;;;;;;4163237;28;20029;-54
2022/01/05 05:38:43;;;;;;;6.05;3.35;;;9.70;99.90;;;;;;4160272;28;20121;-54
2022/01/05 05:40:46;;;;;;;3.83;3.53;;;9.70;99.90;;;;;;4162901;28;20068;-54
2022/01/05 05:42:49;;;;;;;5.20;3.85;;;9.70;99.90;;;;;;4156681;28;20141;-53
2022/01/05 05:44:52;;;;;;;11.07;3.63;;;9.80;99.90;;;;;;4159673;28;20095;-54
2022/01/05 05:46:54;;;;;;;10.13;4.45;;;9.70;99.90;;;;;;4160195;28;20077;-53
2022/01/05 05:48:57;;;;;;;6.25;4.63;;;9.70;99.90;;;;;;4162866;28;20053;-53
2022/01/05 05:50:59;;;;;;;3.85;3.13;;;9.70;99.90;;;;;;4160624;28;20519;-53
2022/01/05 05:53:01;;;;;;;8.20;4.18;;;9.70;99.90;;;;;;4162804;28;20137;-53
2022/01/05 05:55:04;;;;;;;5.60;4.43;;;9.80;99.90;;;;;;4159659;28;20148;-54
2022/01/05 05:57:15;;;;;;;5.60;3.65;;;9.80;99.90;;;;;;4177058;28;20045;-54
2022/01/05 05:59:17;;;;;;;8.23;3.75;;;9.80;99.90;;;;;;4157591;28;20045;-54
2022/01/05 06:01:19;;;;;;;7.55;4.38;;;9.80;99.90;;;;;;4162973;28;20069;-52
2022/01/05 06:03:22;;;;;;;4.93;4.00;;;9.80;99.90;;;;;;4160728;28;20084;-52
2022/01/05 06:05:24;;;;;;;5.25;3.35;;;9.70;99.90;;;;;;4162954;28;20049;-53
2022/01/05 06:07:26;;;;;;;4.53;4.13;;;9.80;99.90;;;;;;4159676;28;20045;-53
2022/01/05 06:09:28;;;;;;;4.90;4.50;;;9.80;99.90;;;;;;4163626;28;20404;-52
2022/01/05 06:11:30;;;;;;;14.18;4.50;;;9.80;99.90;;;;;;4159799;28;20136;-54
2022/01/05 06:13:32;;;;;;;5.55;3.15;;;9.80;99.90;;;;;;4162684;28;20033;-52
2022/01/05 06:15:35;;;;;;;8.25;4.25;;;9.80;99.90;;;;;;4159470;28;20030;-53
2022/01/05 06:17:37;;;;;;;;;;;9.70;99.90;;;;;;4162733;28;20065;-53
2022/01/05 06:19:39;;;;;;;5.18;4.65;;;9.70;99.90;;;;;;4159271;28;19975;-53
2022/01/05 06:21:41;;;;;;;5.32;4.20;;;9.70;99.90;;;;;;4154164;28;20053;-52
2022/01/05 06:23:43;;;;;;;3.25;3.15;;;9.70;99.90;;;;;;4154915;28;20490;-54
2022/01/05 06:25:45;;;;;;;4.85;3.80;;;9.70;99.90;;;;;;4161916;28;20037;-56
2022/01/05 06:27:47;;;;;;;3.85;3.55;;;9.70;99.90;;;;;;4158420;28;20531;-56
2022/01/05 06:29:49;;;;;;;5.70;4.65;;;9.80;99.90;;;;;;4161474;28;20045;-56
2022/01/05 06:31:51;;;;;;;6.72;3.53;;;9.80;99.90;;;;;;4150917;28;20077;-54
2022/01/05 06:33:53;;;;;;;7.25;4.05;;;9.90;99.90;;;;;;4162839;28;20473;-56
2022/01/05 06:35:55;;;;;;;6.50;3.28;;;9.90;99.90;;;;;;4159593;28;20037;-56
2022/01/05 06:37:58;;;;;;;4.68;4.30;;;9.90;99.90;;;;;;4162888;28;20069;-56
2022/01/05 06:40:00;;;;;;;5.00;3.97;;;10.00;99.90;;;;;;4160220;28;20076;-55
2022/01/05 06:42:02;;;;;;;9.55;5.13;;;9.90;99.90;;;;;;4162964;28;20072;-56
2022/01/05 06:44:04;;;;;;;7.43;3.95;;;9.90;99.90;;;;;;4159854;28;20076;-55
2022/01/05 06:46:06;;;;;;;11.30;4.55;;;9.90;99.90;;;;;;4162640;28;20125;-55
2022/01/05 06:48:08;;;;;;;3.90;3.60;;;9.90;99.90;;;;;;4160550;28;20041;-56
2022/01/05 06:50:11;;;;;;;8.98;4.22;;;9.90;99.90;;;;;;4163673;28;20045;-56
2022/01/05 06:52:13;;;;;;;;;;;9.90;99.90;;;;;;4173033;28;20069;-56
2022/01/05 06:54:15;;;;;;;4.53;4.22;;;9.90;99.90;;;;;;4161749;28;19925;-55
2022/01/05 06:56:17;;;;;;;6.15;5.72;;;9.90;99.90;;;;;;4158860;28;20439;-56
2022/01/05 06:58:19;;;;;;;7.70;4.72;;;9.90;99.90;;;;;;4160394;28;20073;-56
2022/01/05 07:00:23;;;;;;;6.13;5.10;;;9.90;99.90;;;;;;4160628;28;20069;-56
2022/01/05 07:02:25;;;;;;;6.63;4.15;;;9.90;99.90;;;;;;4160683;28;20076;-55
2022/01/05 07:04:28;;;;;;;5.78;3.95;;;9.90;99.90;;;;;;4161643;28;20685;-56
2022/01/05 07:06:30;;;;;;;4.72;4.32;;;9.90;99.90;;;;;;4160153;28;20041;-55
2022/01/05 07:08:32;;;;;;;4.20;3.75;;;9.90;99.90;;;;;;4160889;28;20033;-56
2022/01/05 07:10:34;;;;;;;10.63;4.07;;;10.00;99.90;;;;;;4159533;28;20073;-55
2022/01/05 07:12:37;;;;;;;7.32;4.93;;;10.00;99.90;;;;;;4155665;28;20044;-55
2022/01/05 07:14:39;;;;;;;4.65;4.15;;;10.00;99.90;;;;;;4158699;28;20064;-56
2022/01/05 07:16:41;;;;;;;5.97;5.53;;;9.90;99.90;;;;;;4161178;28;20042;-56
2022/01/05 07:18:43;;;;;;;6.22;5.82;;;9.90;99.90;;;;;;4158180;28;20116;-55
2022/01/05 07:20:46;;;;;;;3.67;3.47;;;9.90;99.90;;;;;;4162018;28;20061;-55
2022/01/05 07:22:48;;;;;;;6.47;3.97;;;9.90;99.90;;;;;;4159254;28;20076;-56
2022/01/05 07:24:50;;;;;;;6.88;4.22;;;10.00;99.90;;;;;;4160840;28;20490;-56
2022/01/05 07:26:52;;;;;;;8.38;4.72;;;9.90;99.90;;;;;;4160449;28;20457;-56
2022/01/05 07:28:55;;;;;;;4.10;3.65;;;9.90;99.90;;;;;;4161588;28;20061;-56
2022/01/05 07:30:57;;;;;;;6.15;4.00;;;9.90;99.90;;;;;;4158385;28;20590;-56
2022/01/05 07:32:59;;;;;;;12.35;4.38;;;10.00;99.90;;;;;;4149043;28;20041;-56
2022/01/05 07:35:02;;;;;;;6.75;4.25;;;10.00;99.90;;;;;;4155945;28;20065;-54
2022/01/05 07:37:04;;;;;;;5.20;4.60;;;10.00;99.90;;;;;;4160756;28;20183;-54
2022/01/05 07:39:10;;;;;;;4.20;3.90;;;10.00;99.90;;;;;;4159559;28;20041;-55
2022/01/05 07:41:12;;;;;;;4.38;4.03;;;10.00;99.90;;;;;;4160917;28;20045;-56
2022/01/05 07:43:14;;;;;;;10.35;5.60;;;10.00;99.90;;;;;;4158881;28;20041;-54
2022/01/05 07:45:17;;;;;;;6.30;5.80;;;10.00;99.90;;;;;;4160726;28;20073;-57
2022/01/05 07:47:19;;;;;;;4.75;4.30;;;10.00;99.90;;;;;;4158146;28;20065;-55
2022/01/05 07:49:21;;;;;;;8.77;4.03;;;10.00;99.90;;;;;;4162350;28;20080;-55
2022/01/05 07:51:24;;;;;;;7.50;5.13;;;10.00;99.90;;;;;;4159859;28;20033;-55
2022/01/05 07:53:26;;;;;;;3.80;3.60;;;10.00;99.90;;;;;;4160896;28;20117;-56
2022/01/05 07:55:30;;;;;;;4.70;4.40;;;10.00;99.90;;;;;;4159942;28;20033;-55
2022/01/05 07:57:32;;;;;;;4.68;4.35;;;10.00;99.90;;;;;;4160128;28;20040;-56
2022/01/05 07:59:34;;;;;;;5.80;4.20;;;10.00;99.90;;;;;;4160626;28;20029;-55
2022/01/05 08:01:36;;;;;;;5.72;5.22;;;10.00;99.90;;;;;;4159973;28;20120;-55
2022/01/05 08:03:38;;;;;;;7.35;4.97;;;10.00;99.90;;;;;;4159437;28;20045;-55
2022/01/05 08:05:54;;;;;;;5.40;4.85;;;10.00;99.90;;;;;;4159704;28;20064;-56
2022/01/05 08:07:56;;;;;;;4.10;3.80;;;10.00;99.90;;;;;;4158172;28;20057;-55
2022/01/05 08:09:58;;;;;;;5.15;4.63;;;10.00;99.90;;;;;;4162118;28;20202;-55
2022/01/05 08:12:00;;;;;;;4.55;4.15;;;10.00;99.90;;;;;;4155296;28;20115;-56
2022/01/05 08:14:02;;;;;;;9.27;4.70;;;10.00;99.90;;;;;;4160654;28;20561;-54
2022/01/05 08:16:05;;;;;;;5.57;5.10;;;10.00;99.90;;;;;;4157732;28;20068;-55
2022/01/05 08:18:07;;;;;;;4.13;3.92;;;10.00;99.90;;;;;;4161113;28;20043;-55
2022/01/05 08:20:12;;;;;;;7.15;5.45;;;10.00;99.90;;;;;;4158239;28;20116;-55
2022/01/05 08:22:15;;;;;;;6.97;4.78;;;10.10;99.90;;;;;;4160942;28;20092;-56
2022/01/05 08:24:17;;;;;;;6.72;4.75;;;10.10;99.90;;;;;;4158301;28;20038;-55
2022/01/05 08:26:19;;;;;;;7.38;5.80;;;10.10;99.90;;;;;;4161675;28;20073;-55
2022/01/05 08:28:21;;;;;;;6.50;5.95;;;10.00;99.90;;;;;;4159566;28;20037;-56
2022/01/05 08:30:25;;;;;;;7.60;5.15;;;10.00;99.90;;;;;;4160863;28;20096;-56
2022/01/05 08:32:27;;;;;;;5.72;4.68;;;10.00;99.90;;;;;;4158426;28;20046;-55
2022/01/05 08:34:30;;;;;;;5.47;5.18;;;10.10;99.90;;;;;;4160595;28;20379;-56
2022/01/05 08:36:32;;;;;;;6.45;5.32;;;10.20;99.90;;;;;;4159872;28;20494;-56
2022/01/05 08:38:37;;;;;;;5.93;5.63;;;10.20;99.90;;;;;;4161412;28;20061;-56
2022/01/05 08:40:39;;;;;;;8.43;7.57;;;10.10;99.90;;;;;;4156839;28;20041;-56
2022/01/05 08:42:41;;;;;;;6.50;5.93;;;10.20;99.90;;;;;;4160547;28;20045;-56
2022/01/05 08:44:43;;;;;;;7.00;6.68;;;10.20;99.90;;;;;;4158786;28;20045;-56
2022/01/05 08:46:45;;;;;;;6.05;5.70;;;10.20;99.90;;;;;;4161124;28;20068;-56
2022/01/05 08:48:48;;;;;;;6.22;5.53;;;10.10;99.90;;;;;;4158978;28;20084;-55
2022/01/05 08:50:51;;;;;;;9.48;7.93;;;10.20;99.90;;;;;;4160874;28;20063;-56
2022/01/05 08:52:54;;;;;;;11.32;7.20;;;10.20;99.90;;;;;;4159937;28;20041;-56
2022/01/05 08:54:56;;;;;;;5.97;5.57;;;10.20;99.90;;;;;;4164126;28;20099;-55
2022/01/05 08:56:58;;;;;;;6.55;5.97;;;10.20;99.90;;;;;;4161969;28;20410;-55
2022/01/05 08:59:00;;;;;;;5.90;5.45;;;10.20;99.90;;;;;;4163605;28;20069;-55
2022/01/05 09:01:03;;;;;;;7.07;6.47;;;10.20;99.90;;;;;;4162909;28;20038;-55
2022/01/05 09:03:06;;;;;;;7.57;6.88;;;10.30;99.90;;;;;;4162690;28;20067;-55
2022/01/05 09:05:09;;;;;;;5.95;5.50;;;10.30;99.90;;;;;;4163665;28;20386;-55
2022/01/05 09:07:11;;;;;;;9.15;6.63;;;10.30;99.90;;;;;;4161421;28;20099;-55
2022/01/05 09:09:13;;;;;;;7.45;6.82;;;10.30;99.90;;;;;;4161211;28;20132;-56
2022/01/05 09:11:15;;;;;;;5.88;5.35;;;10.30;99.90;;;;;;4162023;28;20057;-56
2022/01/05 09:13:17;;;;;;;10.15;6.97;;;10.30;99.90;;;;;;4163331;28;20045;-55
2022/01/05 09:15:19;;;;;;;7.07;6.65;;;10.40;99.90;;;;;;4161367;28;20045;-56
2022/01/05 09:17:21;;;;;;;6.90;6.45;;;10.40;99.90;;;;;;4163017;28;20045;-56
2022/01/05 09:19:23;;;;;;;6.80;6.03;;;10.40;99.90;;;;;;4160677;28;20062;-55
2022/01/05 09:21:26;;;;;;;12.93;6.38;;;10.50;99.90;;;;;;4163933;28;20489;-55
2022/01/05 09:23:39;;;;;;;7.07;6.40;;;10.50;99.90;;;;;;4158652;28;20041;-56
2022/01/05 09:25:43;;;;;;;7.47;6.85;;;10.60;99.90;;;;;;4150969;28;20099;-56
2022/01/05 09:27:46;;;;;;;9.93;7.82;;;10.60;99.90;;;;;;4160780;28;20037;-55
2022/01/05 09:29:49;;;;;;;9.30;7.35;;;10.60;99.90;;;;;;4152418;28;20069;-54
2022/01/05 09:31:51;;;;;;;6.63;6.10;;;10.60;99.90;;;;;;4160174;28;20136;-56
2022/01/05 09:33:53;;;;;;;10.57;6.72;;;10.60;99.90;;;;;;4162772;28;20042;-56
2022/01/05 09:36:03;;;;;;;7.00;6.55;;;10.70;99.90;;;;;;4160779;28;20041;-56
2022/01/05 09:38:10;;;;;;;6.45;6.07;;;10.70;99.90;;;;;;4163119;28;20061;-56
2022/01/05 09:42:33;;;;;;;9.02;8.05;;;10.70;99.90;;;;;;4157774;28;20375;-55
2022/01/05 09:44:43;;;;;;;11.85;8.25;;;10.60;99.90;;;;;;4161046;28;20132;-56
2022/01/05 09:47:10;;;;;;;8.80;7.70;;;10.60;99.90;;;;;;4163416;28;20071;-55
2022/01/05 09:49:17;;;;;;;8.32;7.68;;;10.60;99.90;;;;;;4162383;28;20048;-55
2022/01/05 09:51:24;;;;;;;9.13;8.10;;;10.50;99.90;;;;;;4150282;28;20045;-56
2022/01/05 09:53:26;;;;;;;13.98;8.23;;;10.50;99.90;;;;;;4167182;28;20734;-56
2022/01/05 09:55:51;;;;;;;8.50;7.63;;;10.50;99.90;;;;;;4160283;28;20036;-56
2022/01/05 09:57:55;;;;;;;8.25;7.60;;;10.50;99.90;;;;;;4163513;28;20383;-55
2022/01/05 09:59:58;;;;;;;8.48;7.85;;;10.60;99.90;;;;;;4160365;28;20048;-55
2022/01/05 10:02:02;;;;;;;9.52;7.82;;;10.70;99.90;;;;;;4162355;28;20489;-55
2022/01/05 10:04:04;;;;;;;10.73;8.80;;;10.70;99.90;;;;;;4161399;28;20053;-56
2022/01/05 10:06:07;;;;;;;8.77;8.18;;;10.70;99.90;;;;;;4161900;28;20049;-55
2022/01/05 10:08:10;;;;;;;9.93;9.00;;;10.60;99.90;;;;;;4156820;28;20092;-55
2022/01/05 10:10:12;;;;;;;7.95;7.28;;;10.60;99.90;;;;;;4162081;28;20049;-54
2022/01/05 10:12:14;;;;;;;8.88;8.07;;;10.70;99.90;;;;;;4159881;28;20490;-55
2022/01/05 10:14:16;;;;;;;8.60;7.95;;;10.70;99.90;;;;;;4162953;28;20068;-55
2022/01/05 10:16:18;;;;;;;10.38;8.32;;;10.70;99.90;;;;;;4158456;28;20144;-56
2022/01/05 10:18:22;;;;;;;9.80;8.95;;;10.70;99.90;;;;;;4160641;28;20037;-55
2022/01/05 10:20:24;;;;;;;14.68;11.48;;;10.70;99.90;;;;;;4159858;28;20034;-56
2022/01/05 10:22:34;;;;;;;12.30;10.00;;;10.70;99.90;;;;;;4162833;28;20045;-55
2022/01/05 10:24:44;;;;;;;11.38;9.27;;;10.70;99.90;;;;;;4160698;28;20103;-55
2022/01/05 10:26:46;;;;;;;13.90;11.38;;;10.70;99.90;;;;;;4159892;28;20156;-56
2022/01/05 10:28:49;;;;;;;11.13;9.32;;;10.70;99.90;;;;;;4149239;28;20045;-56
2022/01/05 10:30:50;;;;;;;;;;;10.70;99.90;;;;;;4162107;28;20076;-55
2022/01/05 10:32:54;;;;;;;9.77;8.93;;;10.70;99.90;;;;;;4157609;28;19921;-56
2022/01/05 10:35:03;;;;;;;12.23;10.05;;;10.80;99.90;;;;;;4162224;28;20129;-56
2022/01/05 10:37:06;;;;;;;9.90;8.98;;;10.70;99.90;;;;;;4158157;28;20076;-55
2022/01/05 10:39:08;;;;;;;12.90;10.45;;;10.70;99.90;;;;;;4161470;28;20041;-55
2022/01/05 10:41:20;;;;;;;9.77;9.13;;;10.80;99.90;;;;;;4160073;28;20087;-56
2022/01/05 10:43:23;;;;;;;11.93;9.60;;;10.80;99.90;;;;;;4161639;28;20079;-55
2022/01/05 10:45:40;;;;;;;12.45;10.18;;;10.80;99.90;;;;;;4159776;28;20042;-55
2022/01/05 10:47:43;;;;;;;11.02;8.57;;;10.80;99.90;;;;;;4162772;28;20116;-54
2022/01/05 10:49:45;;;;;;;9.68;8.98;;;10.80;99.90;;;;;;4156039;28;20073;-56